createdAt,value
2023-04-11T00:02:47.480Z,14.00
2023-04-11T00:05:52.273Z,18.00
2023-04-11T00:08:56.769Z,16.00
2023-04-11T00:12:02.300Z,16.00
2023-04-11T00:15:06.572Z,12.00
2023-04-11T00:18:12.627Z,18.00
2023-04-11T00:21:17.564Z,15.33
2023-04-11T00:24:21.023Z,13.80
2023-04-11T00:27:24.277Z,14.00
2023-04-11T00:30:28.096Z,11.00
2023-04-11T00:33:32.411Z,14.20
2023-04-11T00:36:37.629Z,16.00
2023-04-11T00:39:41.037Z,16.50
2023-04-11T00:42:45.072Z,13.00
2023-04-11T00:45:48.975Z,13.80
2023-04-11T00:48:52.493Z,16.00
2023-04-11T00:51:57.636Z,13.40
2023-04-11T00:55:03.511Z,13.00
2023-04-11T00:58:08.655Z,16.40
2023-04-11T01:01:12.178Z,14.40
2023-04-11T01:04:17.594Z,14.50
2023-04-11T01:07:24.307Z,14.00
2023-04-11T01:10:31.942Z,14.60
2023-04-11T01:13:36.336Z,15.00
2023-04-11T01:16:39.748Z,13.00
2023-04-11T01:19:43.308Z,13.20
2023-04-11T01:22:50.475Z,12.00
2023-04-11T01:25:55.139Z,14.00
2023-04-11T01:28:58.768Z,12.60
2023-04-11T01:32:02.577Z,10.00
2023-04-11T01:35:07.166Z,10.00
2023-04-11T01:38:10.556Z,12.00
2023-04-11T01:41:17.797Z,12.00
2023-04-11T01:44:21.565Z,11.00
2023-04-11T01:47:24.952Z,13.20
2023-04-11T01:50:28.695Z,11.60
2023-04-11T01:53:31.956Z,11.40
2023-04-11T01:56:36.638Z,10.25
2023-04-11T01:59:39.909Z,13.00
2023-04-11T02:02:43.430Z,9.40
2023-04-11T02:05:46.719Z,11.20
2023-04-11T02:08:50.015Z,12.00
2023-04-11T02:11:54.628Z,13.50
2023-04-11T02:14:57.961Z,14.25
2023-04-11T02:18:01.957Z,13.75
2023-04-11T02:21:05.997Z,14.60
2023-04-11T02:24:09.320Z,14.00
2023-04-11T02:27:14.048Z,12.80
2023-04-11T02:30:17.284Z,14.00
2023-04-11T02:33:21.049Z,17.00
2023-04-11T02:36:24.375Z,14.00
2023-04-11T02:39:27.919Z,16.00
2023-04-11T02:42:33.692Z,13.20
2023-04-11T02:45:37.009Z,15.60
2023-04-11T02:48:40.342Z,14.40
2023-04-11T02:51:43.677Z,16.60
2023-04-11T02:54:48.361Z,14.00
2023-04-11T02:57:53.333Z,15.00
2023-04-11T03:00:57.470Z,18.00
2023-04-11T03:04:01.028Z,15.00
2023-04-11T03:07:14.117Z,15.75
2023-04-11T03:10:17.513Z,17.00
2023-04-11T03:13:23.134Z,15.60
2023-04-11T03:16:28.269Z,15.00
2023-04-11T03:19:31.700Z,14.50
2023-04-11T03:22:37.082Z,15.00
2023-04-11T03:25:40.819Z,16.00
2023-04-11T03:28:46.595Z,18.25
2023-04-11T03:31:53.464Z,18.40
2023-04-11T03:34:56.982Z,12.00
2023-04-11T03:38:00.254Z,13.20
2023-04-11T03:41:03.628Z,12.80
2023-04-11T03:44:08.930Z,19.00
2023-04-11T03:47:12.394Z,18.00
2023-04-11T03:50:19.341Z,16.80
2023-04-11T03:53:27.450Z,14.75
2023-04-11T03:56:36.470Z,20.00
2023-04-11T03:59:42.088Z,17.00
2023-04-11T04:02:48.454Z,14.00
2023-04-11T04:05:52.726Z,16.00
2023-04-11T04:08:59.704Z,16.00
2023-04-11T04:12:07.776Z,16.75
2023-04-11T04:15:31.562Z,16.80
2023-04-11T04:18:36.547Z,19.00
2023-04-11T04:21:40.265Z,17.60
2023-04-11T04:24:46.203Z,16.80
2023-04-11T04:28:03.059Z,18.40
2023-04-11T04:31:19.389Z,17.40
2023-04-11T04:34:24.674Z,18.00
2023-04-11T04:37:28.971Z,17.00
2023-04-11T04:40:41.893Z,18.25
2023-04-11T04:43:45.678Z,18.80
2023-04-11T04:46:56.185Z,16.60
2023-04-11T04:50:02.224Z,16.20
2023-04-11T04:53:07.580Z,21.75
2023-04-11T04:56:12.321Z,20.00
2023-04-11T04:59:21.761Z,20.00
2023-04-11T05:02:33.191Z,18.60
2023-04-11T05:05:36.643Z,20.00
2023-04-11T05:08:41.540Z,20.00
2023-04-11T05:11:46.901Z,18.00
2023-04-11T05:14:50.823Z,17.00
2023-04-11T05:17:57.586Z,16.60
2023-04-11T05:21:02.494Z,16.00
2023-04-11T05:24:11.523Z,14.00
2023-04-11T05:27:15.850Z,16.00
2023-04-11T05:30:19.788Z,15.20
2023-04-11T05:33:27.314Z,16.20
2023-04-11T05:36:31.326Z,14.20
2023-04-11T05:39:34.894Z,16.50
2023-04-11T05:42:38.359Z,19.00
2023-04-11T05:45:41.834Z,16.80
2023-04-11T05:48:46.548Z,17.00
2023-04-11T05:51:50.642Z,14.20
2023-04-11T05:54:53.885Z,19.00
2023-04-11T05:57:57.121Z,20.60
2023-04-11T06:01:00.852Z,15.40
2023-04-11T06:04:06.041Z,19.00
2023-04-11T06:07:09.542Z,16.00
2023-04-11T06:10:13.033Z,20.00
2023-04-11T06:13:16.312Z,18.00
2023-04-11T06:16:20.008Z,19.60
2023-04-11T06:19:24.716Z,21.00
2023-04-11T06:22:27.967Z,20.00
2023-04-11T06:25:31.280Z,19.00
2023-04-11T06:28:34.540Z,22.00
2023-04-11T06:31:37.839Z,19.67
2023-04-11T06:34:42.655Z,21.00
2023-04-11T06:37:46.229Z,21.20
2023-04-11T06:40:51.644Z,19.20
2023-04-11T06:43:55.243Z,20.60
2023-04-11T06:46:59.408Z,20.00
2023-04-11T06:50:04.227Z,17.00
2023-04-11T06:53:07.447Z,21.60
2023-04-11T06:56:11.623Z,20.00
2023-04-11T06:59:14.954Z,18.20
2023-04-11T07:02:18.382Z,19.00
2023-04-11T07:05:23.044Z,20.60
2023-04-11T07:08:26.394Z,22.60
2023-04-11T07:11:30.149Z,19.80
2023-04-11T07:14:33.460Z,20.00
2023-04-11T07:17:36.794Z,19.00
2023-04-11T07:20:41.464Z,19.00
2023-04-11T07:23:44.822Z,23.60
2023-04-11T07:26:50.565Z,22.50
2023-04-11T07:29:53.843Z,20.00
2023-04-11T07:32:57.176Z,19.40
2023-04-11T07:36:02.275Z,18.00
2023-04-11T07:39:09.394Z,19.60
2023-04-11T07:42:13.012Z,18.00
2023-04-11T07:45:16.853Z,18.40
2023-04-11T07:48:20.222Z,20.00
2023-04-11T07:51:25.449Z,20.00
2023-04-11T07:54:28.663Z,21.00
2023-04-11T07:57:31.979Z,20.00
2023-04-11T08:00:35.464Z,21.40
2023-04-11T08:03:39.253Z,20.40
2023-04-11T08:06:44.652Z,17.80
2023-04-11T08:09:47.897Z,21.20
2023-04-11T08:12:51.392Z,17.80
2023-04-11T08:15:54.636Z,16.00
2023-04-11T08:18:59.150Z,21.00
2023-04-11T08:22:03.872Z,19.00
2023-04-11T08:25:08.790Z,17.80
2023-04-11T08:28:12.704Z,13.50
2023-04-11T08:31:15.972Z,15.80
2023-04-11T08:34:19.252Z,15.20
2023-04-11T08:37:23.987Z,18.00
2023-04-11T08:40:27.333Z,19.80
2023-04-11T08:43:30.861Z,17.00
2023-04-11T08:46:34.713Z,18.00
2023-04-11T08:49:37.989Z,15.50
2023-04-11T08:52:45.941Z,16.20
2023-04-11T08:55:49.467Z,15.20
2023-04-11T08:58:52.750Z,15.00
2023-04-11T09:02:08.663Z,15.00
2023-04-11T09:05:26.090Z,13.00
2023-04-11T09:08:39.777Z,16.60
2023-04-11T09:11:53.599Z,12.40
2023-04-11T09:14:57.038Z,12.00
2023-04-11T09:18:01.101Z,15.00
2023-04-11T09:21:06.992Z,7.80
2023-04-11T09:24:19.579Z,11.00
2023-04-11T09:27:24.853Z,9.75
2023-04-11T09:30:28.497Z,12.00
2023-04-11T09:33:31.783Z,11.20
2023-04-11T09:36:35.366Z,13.00
2023-04-11T09:39:40.647Z,15.00
2023-04-11T09:42:44.394Z,9.00
2023-04-11T09:45:54.207Z,10.00
2023-04-11T09:48:58.208Z,10.00
2023-04-11T09:52:02.303Z,7.00
2023-04-11T09:55:09.132Z,9.00
2023-04-11T09:58:13.859Z,8.00
2023-04-11T10:01:20.102Z,10.80
2023-04-11T10:04:23.552Z,9.00
2023-04-11T10:07:30.002Z,13.00
2023-04-11T10:10:35.322Z,12.00
2023-04-11T10:13:42.893Z,10.00
2023-04-11T10:17:14.837Z,11.00
2023-04-11T10:20:48.300Z,13.00
2023-04-11T10:24:09.678Z,10.00
2023-04-11T10:27:14.260Z,9.00
2023-04-11T10:30:17.824Z,10.00
2023-04-11T10:33:21.965Z,11.00
2023-04-11T10:36:25.236Z,10.40
2023-04-11T10:40:00.994Z,9.25
2023-04-11T10:43:21.450Z,8.00
2023-04-11T10:46:26.917Z,9.00
2023-04-11T10:49:35.454Z,9.00
2023-04-11T10:52:39.382Z,7.60
2023-04-11T10:55:48.215Z,8.00
2023-04-11T10:58:53.516Z,8.50
2023-04-11T11:01:57.233Z,6.00
2023-04-11T11:05:03.207Z,9.00
2023-04-11T11:08:07.280Z,9.00
2023-04-11T11:11:11.968Z,8.50
2023-04-11T11:14:30.123Z,9.00
2023-04-11T11:17:33.677Z,9.40
2023-04-11T11:20:38.027Z,9.00
2023-04-11T11:23:41.416Z,7.00
2023-04-11T11:26:46.731Z,7.00
2023-04-11T11:29:51.916Z,8.00
2023-04-11T11:32:55.273Z,5.60
2023-04-11T11:36:02.222Z,8.33
2023-04-11T11:39:06.831Z,7.75
2023-04-11T11:42:10.207Z,6.00
2023-04-11T11:45:18.859Z,5.00
2023-04-11T11:48:24.179Z,6.00
2023-04-11T11:51:28.137Z,8.00
2023-04-11T11:54:31.342Z,8.00
2023-04-11T11:57:35.380Z,7.60
2023-04-11T12:00:42.175Z,7.00
2023-04-11T12:03:45.732Z,7.00
2023-04-11T12:06:50.338Z,8.00
2023-04-11T12:09:58.210Z,7.00
2023-04-11T12:13:01.449Z,7.20
2023-04-11T12:16:06.972Z,8.00
2023-04-11T12:19:10.555Z,9.50
2023-04-11T12:22:13.817Z,10.00
2023-04-11T12:25:17.187Z,8.00
2023-04-11T12:28:20.623Z,7.00
2023-04-11T12:31:27.243Z,6.80
2023-04-11T12:34:30.658Z,6.50
2023-04-11T12:37:34.412Z,5.40
2023-04-11T12:40:37.725Z,6.00
2023-04-11T12:43:40.982Z,7.60
2023-04-11T12:46:45.671Z,6.00
2023-04-11T12:49:49.179Z,6.00
2023-04-11T12:52:52.454Z,8.00
2023-04-11T12:55:55.711Z,8.00
2023-04-11T12:58:59.118Z,7.60
2023-04-11T13:02:04.231Z,9.00
2023-04-11T13:05:09.699Z,8.00
2023-04-11T13:08:13.015Z,9.00
2023-04-11T13:11:16.254Z,7.00
2023-04-11T13:14:19.481Z,8.00
2023-04-11T13:17:24.337Z,10.00
2023-04-11T13:20:27.623Z,8.60
2023-04-11T13:23:30.868Z,6.00
2023-04-11T13:26:35.434Z,6.00
2023-04-11T13:29:40.002Z,8.00
2023-04-11T13:32:44.640Z,8.80
2023-04-11T13:35:47.886Z,7.00
2023-04-11T13:38:52.460Z,9.67
2023-04-11T13:41:55.644Z,8.00
2023-04-11T13:44:59.246Z,8.40
2023-04-11T13:48:04.046Z,6.80
2023-04-11T13:51:08.017Z,8.00
2023-04-11T13:54:11.226Z,8.80
2023-04-11T13:57:14.478Z,8.40
2023-04-11T14:00:20.570Z,8.00
2023-04-11T14:03:25.657Z,8.60
2023-04-11T14:06:28.972Z,8.00
2023-04-11T14:09:32.232Z,7.00
2023-04-11T14:12:35.414Z,5.50
2023-04-11T14:15:38.639Z,7.00
2023-04-11T14:18:44.656Z,7.20
2023-04-11T14:21:48.209Z,9.00
2023-04-11T14:24:51.673Z,7.00
2023-04-11T14:27:54.998Z,7.00
2023-04-11T14:30:58.292Z,5.20
2023-04-11T14:34:03.026Z,9.00
2023-04-11T14:37:06.631Z,10.00
2023-04-11T14:40:11.380Z,7.60
2023-04-11T14:43:14.784Z,9.80
2023-04-11T14:46:18.314Z,8.50
2023-04-11T14:49:23.159Z,9.00
2023-04-11T14:52:26.707Z,9.00
2023-04-11T14:55:29.969Z,10.00
2023-04-11T14:58:33.230Z,9.00
2023-04-11T15:01:36.562Z,10.75
2023-04-11T15:04:41.195Z,10.00
2023-04-11T15:07:44.833Z,7.00
2023-04-11T15:10:53.875Z,8.80
2023-04-11T15:13:57.310Z,8.00
2023-04-11T15:17:00.788Z,9.40
2023-04-11T15:20:12.781Z,8.00
2023-04-11T15:23:16.437Z,11.40
2023-04-11T15:26:19.721Z,10.40
2023-04-11T15:29:22.897Z,10.00
2023-04-11T15:32:26.898Z,9.00
2023-04-11T15:35:31.631Z,10.00
2023-04-11T15:38:36.898Z,9.40
2023-04-11T15:41:41.460Z,12.60
2023-04-11T15:44:44.926Z,9.00
2023-04-11T15:47:48.123Z,11.00
2023-04-11T15:50:52.852Z,10.60
2023-04-11T15:53:56.518Z,11.00
2023-04-11T15:57:00.105Z,13.00
2023-04-11T16:00:09.023Z,13.40
2023-04-11T16:03:13.203Z,13.67
2023-04-11T16:06:18.700Z,16.40
2023-04-11T16:09:21.962Z,16.00
2023-04-11T16:12:25.221Z,13.00
2023-04-11T16:15:28.460Z,19.00
2023-04-11T16:18:31.713Z,17.00
2023-04-11T16:21:36.747Z,17.00
2023-04-11T16:24:40.423Z,15.60
2023-04-11T16:27:43.650Z,22.00
2023-04-11T16:30:47.145Z,19.80
2023-04-11T16:33:50.365Z,20.00
2023-04-11T16:36:55.056Z,18.40
2023-04-11T16:39:58.523Z,22.75
2023-04-11T16:43:01.784Z,21.00
2023-04-11T16:46:05.374Z,17.80
2023-04-11T16:49:09.151Z,15.00
2023-04-11T16:52:13.854Z,12.75
2023-04-11T16:55:17.998Z,14.00
2023-04-11T16:58:21.183Z,11.00
2023-04-11T17:01:24.479Z,9.00
2023-04-11T17:04:27.902Z,8.80
2023-04-11T17:07:33.482Z,7.80
2023-04-11T17:10:36.774Z,11.00
2023-04-11T17:13:40.330Z,12.40
2023-04-11T17:16:46.091Z,12.50
2023-04-11T17:19:49.468Z,14.00
2023-04-11T17:22:54.067Z,11.50
2023-04-11T17:25:58.267Z,17.00
2023-04-11T17:29:02.013Z,11.25
2023-04-11T17:32:05.373Z,13.50
2023-04-11T17:35:09.116Z,11.60
2023-04-11T17:38:14.544Z,9.00
2023-04-11T17:41:18.823Z,10.00
2023-04-11T17:44:22.090Z,9.00
2023-04-11T17:47:26.883Z,10.00
2023-04-11T17:50:30.870Z,7.00
2023-04-11T17:53:35.767Z,8.00
2023-04-11T17:56:39.431Z,9.75
2023-04-11T17:59:42.647Z,9.00
2023-04-11T18:02:48.166Z,9.00
2023-04-11T18:05:52.316Z,11.00
2023-04-11T18:08:57.430Z,12.80
2023-04-11T18:12:00.884Z,13.20
2023-04-11T18:15:06.171Z,13.00
2023-04-11T18:18:10.637Z,11.80
2023-04-11T18:21:13.946Z,12.40
2023-04-11T18:24:18.601Z,11.50
2023-04-11T18:27:22.093Z,14.00
2023-04-11T18:30:25.373Z,12.40
2023-04-11T18:33:28.752Z,11.50
2023-04-11T18:36:32.082Z,8.80
2023-04-11T18:39:36.758Z,9.50
2023-04-11T18:42:40.373Z,8.00
2023-04-11T18:45:44.868Z,10.00
2023-04-11T18:48:48.498Z,9.20
2023-04-11T18:51:52.947Z,11.00
2023-04-11T18:54:57.979Z,12.00
2023-04-11T18:58:03.183Z,10.60
2023-04-11T19:01:15.731Z,11.60
2023-04-11T19:04:20.883Z,12.60
2023-04-11T19:07:24.454Z,8.80
2023-04-11T19:10:29.069Z,8.50
2023-04-11T19:13:33.028Z,8.80
2023-04-11T19:16:37.287Z,9.40
2023-04-11T19:19:40.841Z,6.00
2023-04-11T19:22:44.108Z,6.20
2023-04-11T19:25:49.652Z,4.40
2023-04-11T19:28:53.151Z,6.00
2023-04-11T19:31:56.400Z,8.00
2023-04-11T19:34:59.872Z,7.60
2023-04-11T19:38:05.803Z,9.60
2023-04-11T19:41:14.598Z,12.20
2023-04-11T19:44:17.852Z,9.00
2023-04-11T19:47:21.215Z,10.40
2023-04-11T19:50:24.581Z,9.00
2023-04-11T19:53:27.980Z,7.60
2023-04-11T19:56:32.863Z,10.40
2023-04-11T19:59:36.751Z,7.50
2023-04-11T20:02:41.297Z,8.25
2023-04-11T20:05:45.804Z,9.00
2023-04-11T20:08:49.135Z,6.50
2023-04-11T20:11:53.744Z,8.00
2023-04-11T20:14:58.188Z,7.00
2023-04-11T20:18:01.695Z,10.60
2023-04-11T20:21:07.774Z,8.00
2023-04-11T20:24:12.221Z,2.33
2023-04-11T20:27:17.276Z,4.60
2023-04-11T20:30:21.021Z,6.00
2023-04-11T20:33:24.282Z,6.00
2023-04-11T20:36:27.543Z,6.00
2023-04-11T20:39:31.413Z,3.40
2023-04-11T20:42:39.992Z,4.00
2023-04-11T20:45:45.721Z,5.00
2023-04-11T20:48:50.040Z,4.80
2023-04-11T20:51:54.725Z,5.00
2023-04-11T20:54:57.983Z,4.80
2023-04-11T20:58:02.672Z,5.00
2023-04-11T21:01:07.223Z,6.20
2023-04-11T21:04:11.941Z,5.60
2023-04-11T21:07:15.336Z,6.00
2023-04-11T21:10:20.958Z,5.60
2023-04-11T21:13:25.764Z,6.60
2023-04-11T21:16:29.302Z,8.00
2023-04-11T21:19:32.566Z,9.00
2023-04-11T21:22:36.299Z,8.00
2023-04-11T21:25:39.531Z,9.00
2023-04-11T21:28:44.611Z,8.00
2023-04-11T21:31:48.129Z,8.00
2023-04-11T21:34:51.373Z,10.00
2023-04-11T21:37:54.643Z,9.67
2023-04-11T21:40:58.950Z,8.80
2023-04-11T21:44:03.579Z,10.40
2023-04-11T21:47:06.826Z,7.60
2023-04-11T21:50:11.202Z,10.00
2023-04-11T21:53:14.371Z,10.00
2023-04-11T21:56:17.941Z,10.00
2023-04-11T21:59:22.556Z,10.60
2023-04-11T22:02:26.276Z,9.00
2023-04-11T22:05:29.679Z,10.00
2023-04-11T22:08:32.954Z,10.60
2023-04-11T22:11:36.202Z,11.00
2023-04-11T22:14:40.865Z,12.00
2023-04-11T22:17:51.275Z,12.00
2023-04-11T22:20:55.335Z,12.00
2023-04-11T22:23:58.699Z,12.40
2023-04-11T22:27:05.651Z,10.80
2023-04-11T22:30:11.596Z,10.50
2023-04-11T22:33:14.946Z,13.00
2023-04-11T22:36:18.185Z,10.20
2023-04-11T22:39:22.158Z,9.20
2023-04-11T22:42:25.816Z,10.00
2023-04-11T22:45:30.724Z,11.00
2023-04-11T22:48:36.422Z,13.00
2023-04-11T22:51:41.065Z,12.40
2023-04-11T22:54:44.621Z,13.00
2023-04-11T22:57:47.909Z,12.00
2023-04-11T23:00:52.578Z,13.40
2023-04-11T23:03:56.350Z,15.00
2023-04-11T23:06:59.978Z,18.80
2023-04-11T23:10:06.012Z,14.60
2023-04-11T23:13:09.393Z,17.00
2023-04-11T23:16:14.379Z,17.67
2023-04-11T23:19:19.079Z,17.00
2023-04-11T23:22:22.239Z,18.20
2023-04-11T23:25:25.705Z,16.80
2023-04-11T23:28:28.931Z,18.00
2023-04-11T23:31:33.851Z,19.00
2023-04-11T23:34:37.055Z,22.00
2023-04-11T23:37:41.031Z,20.33
2023-04-11T23:40:44.467Z,21.00
2023-04-11T23:43:47.731Z,23.00
2023-04-11T23:46:52.323Z,21.67
2023-04-11T23:49:55.692Z,23.00
2023-04-11T23:52:59.042Z,22.60
2023-04-11T23:56:03.303Z,21.50
2023-04-11T23:59:06.520Z,23.00
